Monemvasia — A8XA3 — position and weather

sailwx.info

Track history (hours):
 
Tides and Currents Weather Stations Pressure Air Temp Water Temp Dewpoint Dewpoint Depression Visibility Wind Speed Wind Dir Waves Ship Positions

Monemvasia

Last reported at 2017-Nov-24 20:30 UTC. Time now 2017-Nov-24 20:38 UTC.
Position N 38°33' W 009°29'.

Length 207 m; draft 9.2 m.

Type: Ship (hazmat cat A). MMSI: 636017405.

Date/timePositionNaut miles runAvg speedWind from/ knotsBaromVisibWave heightAir tempDewpointWater temp
2017-Nov-24 20:30N 38°33' W 009°29'0 0.5
2017-Nov-24 20:00N 38°33' W 009°30'0 0.9
2017-Nov-24 19:30N 38°33' W 009°30'0 0.9
2017-Nov-24 19:00N 38°32' W 009°31'0 0.8
2017-Nov-24 18:30N 38°32' W 009°31'0 0.3
2017-Nov-24 18:00N 38°32' W 009°31'1 1.0
2017-Nov-24 17:30N 38°32' W 009°31'3 5.6
2017-Nov-24 17:00N 38°34' W 009°28'3 6.2
2017-Nov-24 16:31N 38°36' W 009°25'0 0.8
2017-Nov-24 16:00N 38°36' W 009°26'1 1.0
2017-Nov-24 15:30N 38°36' W 009°26'0 0.9
2017-Nov-24 15:00N 38°35' W 009°27'1 1.1
2017-Nov-24 14:30N 38°35' W 009°27'1 1.3
2017-Nov-24 14:00N 38°35' W 009°28'1 1.5
2017-Nov-24 13:30N 38°34' W 009°29'1 1.5
2017-Nov-24 13:00N 38°34' W 009°29'1 1.7
2017-Nov-24 12:30N 38°33' W 009°30'1 1.4
2017-Nov-24 12:00N 38°33' W 009°30'1 2.9
2017-Nov-24 11:30N 38°34' W 009°29'3 5.6
2017-Nov-24 11:00N 38°36' W 009°27'1 2.3
2017-Nov-24 10:30N 38°36' W 009°25'1 1.4
2017-Nov-24 10:00N 38°36' W 009°26'1 1.5
2017-Nov-24 09:30N 38°36' W 009°27'1 1.4
2017-Nov-24 09:00N 38°35' W 009°28'1 1.3
2017-Nov-24 08:30N 38°35' W 009°28'1 1.2
2017-Nov-24 08:00N 38°34' W 009°29'1 1.1
2017-Nov-24 07:30N 38°33' W 009°29'2 3.0
2017-Nov-24 07:00N 38°34' W 009°27'3 5.2
2017-Nov-24 06:30N 38°37' W 009°25'1 1.1
2017-Nov-24 06:00N 38°36' W 009°26'1 1.0
2017-Nov-24 05:30N 38°36' W 009°26'0 0.8
2017-Nov-24 05:00N 38°35' W 009°26'0 0.8
2017-Nov-24 04:30N 38°35' W 009°27'0 0.8
2017-Nov-24 04:00N 38°35' W 009°27'0 0.7
2017-Nov-24 03:30N 38°35' W 009°27'0 0.6
2017-Nov-24 03:00N 38°34' W 009°28'0 0.8
2017-Nov-24 02:30N 38°34' W 009°28'0 0.6
2017-Nov-24 02:00N 38°34' W 009°28'1 1.7
2017-Nov-24 01:30N 38°35' W 009°28'4 8.6
2017-Nov-24 01:00N 38°35' W 009°34'5 9.3
2017-Nov-24 00:30N 38°34' W 009°40'5 9.3
2017-Nov-24 00:00N 38°33' W 009°46'5 9.7
2017-Nov-23 23:30N 38°33' W 009°52'5 9.8
2017-Nov-23 23:00N 38°33' W 009°58'4 8.9
2017-Nov-23 22:30N 38°34' W 010°04'5 9.1
2017-Nov-23 21:56N 38°39' W 010°05'4 8.8
2017-Nov-23 21:29N 38°42' W 010°06'4 8.8
2017-Nov-23 21:00N 38°47' W 010°06'10 8.9
2017-Nov-23 19:50N 38°57' W 010°06'4 8.7
2017-Nov-23 19:22N 39°01' W 010°07'3 8.8
2017-Nov-23 19:00N 39°04' W 010°07'130 8.2
2017-Nov-23 03:05N 41°01' W 008°52'1 8.1
2017-Nov-23 03:00N 41°01' W 008°51'4 7.9
2017-Nov-23 02:31N 41°05' W 008°48'4 7.6
2017-Nov-23 02:01N 41°08' W 008°45'4 7.0
2017-Nov-23 01:30N 41°10' W 008°42'1 2.8
2017-Nov-23 00:59N 41°12' W 008°41'0 0.0
2017-Nov-23 00:29N 41°12' W 008°41'0 0.0
2017-Nov-22 23:59N 41°12' W 008°41'0 0.0
2017-Nov-22 23:29N 41°12' W 008°41'0 0.0
2017-Nov-22 22:59N 41°12' W 008°41'0 0.0
2017-Nov-22 22:29N 41°12' W 008°41'0 0.0
2017-Nov-22 21:59N 41°12' W 008°41'0 0.0
2017-Nov-22 21:29N 41°12' W 008°41'0 0.0
2017-Nov-22 20:59N 41°12' W 008°41'0 0.0
2017-Nov-22 20:29N 41°12' W 008°41'0 0.0
2017-Nov-22 19:59N 41°12' W 008°41'0 0.0
2017-Nov-22 19:29N 41°12' W 008°41'  
2017-Nov-19 11:02N 36°03' W 005°25'1 9.4
2017-Nov-19 10:57N 36°03' W 005°24'5 2.7
2017-Nov-19 08:58N 36°08' W 005°26'0 0.0
2017-Nov-19 08:31N 36°08' W 005°26'0 0.0
2017-Nov-19 07:58N 36°08' W 005°26'0 0.0
2017-Nov-19 07:25N 36°08' W 005°26'0 0.0
2017-Nov-19 06:58N 36°08' W 005°26'0 0.0
2017-Nov-19 06:31N 36°08' W 005°26'0 0.0
2017-Nov-19 01:34N 36°08' W 005°26'0 0.0
2017-Nov-19 01:22N 36°08' W 005°26'0 0.0
2017-Nov-19 01:01N 36°08' W 005°26'0 0.0
2017-Nov-19 00:25N 36°08' W 005°26'0 0.0
2017-Nov-18 23:22N 36°08' W 005°26'0 0.0
2017-Nov-18 22:55N 36°08' W 005°26'0 0.0
2017-Nov-18 22:28N 36°08' W 005°26'0 0.0
2017-Nov-18 21:58N 36°08' W 005°26'0 0.0
2017-Nov-18 21:28N 36°08' W 005°26'0 0.0
2017-Nov-18 20:55N 36°08' W 005°26'0 0.0
2017-Nov-18 20:28N 36°08' W 005°26'0 0.0
2017-Nov-18 20:01N 36°08' W 005°26'0 0.0
2017-Nov-18 15:18N 36°08' W 005°26'0 0.0
2017-Nov-18 14:57N 36°08' W 005°26'0 0.0
2017-Nov-18 14:15N 36°08' W 005°26'3 0.9
2017-Nov-18 10:49N 36°06' W 005°23'2 5.5
2017-Nov-18 10:30N 36°05' W 005°22'1 1.0
2017-Nov-18 09:56N 36°04' W 005°22'2 5.1
2017-Nov-18 09:30N 36°05' W 005°19'2 3.4
2017-Nov-18 09:00N 36°06' W 005°18'5 6.6
2017-Nov-18 08:18N 36°08' W 005°13'1 1.5
2017-Nov-18 07:50N 36°09' W 005°12'0 1.3
2017-Nov-18 07:30N 36°09' W 005°12'3 2.9
2017-Nov-18 06:30N 36°09' W 005°15'1 1.1
2017-Nov-18 06:00N 36°09' W 005°15'0 0.7
2017-Nov-18 05:30N 36°09' W 005°14'0 0.6
2017-Nov-18 05:00N 36°09' W 005°14'0 0.7
2017-Nov-18 04:30N 36°08' W 005°14'0 0.6
2017-Nov-18 04:00N 36°08' W 005°13'1 1.4
2017-Nov-18 03:30N 36°07' W 005°13'510.6
2017-Nov-18 03:00N 36°03' W 005°17'713.8
2017-Nov-18 02:31N 35°59' W 005°24'611.2
2017-Nov-18 02:00N 35°57' W 005°30'  
2017-Nov-15 15:58N 27°48' W 013°49'  
Track history (hours):
 
Tides and Currents Weather Stations Pressure Air Temp Water Temp Dewpoint Dewpoint Depression Visibility Wind Speed Wind Dir Waves Ship Positions

Monemvasia

Last reported at 2017-Nov-24 20:30 UTC. Time now 2017-Nov-24 20:38 UTC.
Position N 38°33' W 009°29'.

Length 207 m; draft 9.2 m.

Type: Ship (hazmat cat A). MMSI: 636017405.

Date/timePositionNaut miles runAvg speedWind from/ knotsBaromVisibWave heightAir tempDewpointWater temp
2017-Nov-24 20:30N 38°33' W 009°29'0 0.5
2017-Nov-24 20:00N 38°33' W 009°30'0 0.9
2017-Nov-24 19:30N 38°33' W 009°30'0 0.9
2017-Nov-24 19:00N 38°32' W 009°31'0 0.8
2017-Nov-24 18:30N 38°32' W 009°31'0 0.3
2017-Nov-24 18:00N 38°32' W 009°31'1 1.0
2017-Nov-24 17:30N 38°32' W 009°31'3 5.6
2017-Nov-24 17:00N 38°34' W 009°28'3 6.2
2017-Nov-24 16:31N 38°36' W 009°25'0 0.8
2017-Nov-24 16:00N 38°36' W 009°26'1 1.0
2017-Nov-24 15:30N 38°36' W 009°26'0 0.9
2017-Nov-24 15:00N 38°35' W 009°27'1 1.1
2017-Nov-24 14:30N 38°35' W 009°27'1 1.3
2017-Nov-24 14:00N 38°35' W 009°28'1 1.5
2017-Nov-24 13:30N 38°34' W 009°29'1 1.5
2017-Nov-24 13:00N 38°34' W 009°29'1 1.7
2017-Nov-24 12:30N 38°33' W 009°30'1 1.4
2017-Nov-24 12:00N 38°33' W 009°30'1 2.9
2017-Nov-24 11:30N 38°34' W 009°29'3 5.6
2017-Nov-24 11:00N 38°36' W 009°27'1 2.3
2017-Nov-24 10:30N 38°36' W 009°25'1 1.4
2017-Nov-24 10:00N 38°36' W 009°26'1 1.5
2017-Nov-24 09:30N 38°36' W 009°27'1 1.4
2017-Nov-24 09:00N 38°35' W 009°28'1 1.3
2017-Nov-24 08:30N 38°35' W 009°28'1 1.2
2017-Nov-24 08:00N 38°34' W 009°29'1 1.1
2017-Nov-24 07:30N 38°33' W 009°29'2 3.0
2017-Nov-24 07:00N 38°34' W 009°27'3 5.2
2017-Nov-24 06:30N 38°37' W 009°25'1 1.1
2017-Nov-24 06:00N 38°36' W 009°26'1 1.0
2017-Nov-24 05:30N 38°36' W 009°26'0 0.8
2017-Nov-24 05:00N 38°35' W 009°26'0 0.8
2017-Nov-24 04:30N 38°35' W 009°27'0 0.8
2017-Nov-24 04:00N 38°35' W 009°27'0 0.7
2017-Nov-24 03:30N 38°35' W 009°27'0 0.6
2017-Nov-24 03:00N 38°34' W 009°28'0 0.8
2017-Nov-24 02:30N 38°34' W 009°28'0 0.6
2017-Nov-24 02:00N 38°34' W 009°28'1 1.7
2017-Nov-24 01:30N 38°35' W 009°28'4 8.6
2017-Nov-24 01:00N 38°35' W 009°34'5 9.3
2017-Nov-24 00:30N 38°34' W 009°40'5 9.3
2017-Nov-24 00:00N 38°33' W 009°46'5 9.7
2017-Nov-23 23:30N 38°33' W 009°52'5 9.8
2017-Nov-23 23:00N 38°33' W 009°58'4 8.9
2017-Nov-23 22:30N 38°34' W 010°04'5 9.1
2017-Nov-23 21:56N 38°39' W 010°05'4 8.8
2017-Nov-23 21:29N 38°42' W 010°06'4 8.8
2017-Nov-23 21:00N 38°47' W 010°06'10 8.9
2017-Nov-23 19:50N 38°57' W 010°06'4 8.7
2017-Nov-23 19:22N 39°01' W 010°07'3 8.8
2017-Nov-23 19:00N 39°04' W 010°07'130 8.2
2017-Nov-23 03:05N 41°01' W 008°52'1 8.1
2017-Nov-23 03:00N 41°01' W 008°51'4 7.9
2017-Nov-23 02:31N 41°05' W 008°48'4 7.6
2017-Nov-23 02:01N 41°08' W 008°45'4 7.0
2017-Nov-23 01:30N 41°10' W 008°42'1 2.8
2017-Nov-23 00:59N 41°12' W 008°41'0 0.0
2017-Nov-23 00:29N 41°12' W 008°41'0 0.0
2017-Nov-22 23:59N 41°12' W 008°41'0 0.0
2017-Nov-22 23:29N 41°12' W 008°41'0 0.0
2017-Nov-22 22:59N 41°12' W 008°41'0 0.0
2017-Nov-22 22:29N 41°12' W 008°41'0 0.0
2017-Nov-22 21:59N 41°12' W 008°41'0 0.0
2017-Nov-22 21:29N 41°12' W 008°41'0 0.0
2017-Nov-22 20:59N 41°12' W 008°41'0 0.0
2017-Nov-22 20:29N 41°12' W 008°41'0 0.0
2017-Nov-22 19:59N 41°12' W 008°41'0 0.0
2017-Nov-22 19:29N 41°12' W 008°41'  
2017-Nov-19 11:02N 36°03' W 005°25'1 9.4
2017-Nov-19 10:57N 36°03' W 005°24'5 2.7
2017-Nov-19 08:58N 36°08' W 005°26'0 0.0
2017-Nov-19 08:31N 36°08' W 005°26'0 0.0
2017-Nov-19 07:58N 36°08' W 005°26'0 0.0
2017-Nov-19 07:25N 36°08' W 005°26'0 0.0
2017-Nov-19 06:58N 36°08' W 005°26'0 0.0
2017-Nov-19 06:31N 36°08' W 005°26'0 0.0
2017-Nov-19 01:34N 36°08' W 005°26'0 0.0
2017-Nov-19 01:22N 36°08' W 005°26'0 0.0
2017-Nov-19 01:01N 36°08' W 005°26'0 0.0
2017-Nov-19 00:25N 36°08' W 005°26'0 0.0
2017-Nov-18 23:22N 36°08' W 005°26'0 0.0
2017-Nov-18 22:55N 36°08' W 005°26'0 0.0
2017-Nov-18 22:28N 36°08' W 005°26'0 0.0
2017-Nov-18 21:58N 36°08' W 005°26'0 0.0
2017-Nov-18 21:28N 36°08' W 005°26'0 0.0
2017-Nov-18 20:55N 36°08' W 005°26'0 0.0
2017-Nov-18 20:28N 36°08' W 005°26'0 0.0
2017-Nov-18 20:01N 36°08' W 005°26'0 0.0
2017-Nov-18 15:18N 36°08' W 005°26'0 0.0
2017-Nov-18 14:57N 36°08' W 005°26'0 0.0
2017-Nov-18 14:15N 36°08' W 005°26'3 0.9
2017-Nov-18 10:49N 36°06' W 005°23'2 5.5
2017-Nov-18 10:30N 36°05' W 005°22'1 1.0
2017-Nov-18 09:56N 36°04' W 005°22'2 5.1
2017-Nov-18 09:30N 36°05' W 005°19'2 3.4
2017-Nov-18 09:00N 36°06' W 005°18'5 6.6
2017-Nov-18 08:18N 36°08' W 005°13'1 1.5
2017-Nov-18 07:50N 36°09' W 005°12'0 1.3
2017-Nov-18 07:30N 36°09' W 005°12'3 2.9
2017-Nov-18 06:30N 36°09' W 005°15'1 1.1
2017-Nov-18 06:00N 36°09' W 005°15'0 0.7
2017-Nov-18 05:30N 36°09' W 005°14'0 0.6
2017-Nov-18 05:00N 36°09' W 005°14'0 0.7
2017-Nov-18 04:30N 36°08' W 005°14'0 0.6
2017-Nov-18 04:00N 36°08' W 005°13'1 1.4
2017-Nov-18 03:30N 36°07' W 005°13'510.6
2017-Nov-18 03:00N 36°03' W 005°17'713.8
2017-Nov-18 02:31N 35°59' W 005°24'611.2
2017-Nov-18 02:00N 35°57' W 005°30'  
2017-Nov-15 15:58N 27°48' W 013°49'  

Dump ship's entire track history